createdAt,value
2017-02-02T00:00:48.805Z,23.03
2017-02-02T00:01:48.742Z,23.03
2017-02-02T00:02:48.687Z,23.06
2017-02-02T00:03:48.621Z,23.05
2017-02-02T00:04:48.558Z,23.03
2017-02-02T00:05:48.492Z,23.03
2017-02-02T00:06:48.039Z,23.06
2017-02-02T00:07:48.366Z,23.03
2017-02-02T00:08:48.300Z,23.03
2017-02-02T00:09:48.253Z,23.03
2017-02-02T00:10:48.482Z,23.06
2017-02-02T00:11:48.116Z,23.03
2017-02-02T00:12:48.053Z,23.03
2017-02-02T00:13:47.988Z,23
2017-02-02T00:14:47.934Z,23.08
2017-02-02T00:15:47.867Z,23.06
2017-02-02T00:16:47.804Z,23.02
2017-02-02T00:17:47.743Z,22.99
2017-02-02T00:18:47.675Z,23.02
2017-02-02T00:19:47.613Z,23.05
2017-02-02T00:21:02.072Z,23.03
2017-02-02T00:21:47.493Z,22.98
2017-02-02T00:22:47.429Z,23
2017-02-02T00:23:47.566Z,22.99
2017-02-02T00:24:47.300Z,23.08
2017-02-02T00:25:47.240Z,23.03
2017-02-02T00:26:47.175Z,23.02
2017-02-02T00:27:47.115Z,22.96
2017-02-02T00:28:47.050Z,23.03
2017-02-02T00:29:46.596Z,23.06
2017-02-02T00:30:46.927Z,23.03
2017-02-02T00:31:46.863Z,23.06
2017-02-02T00:32:46.801Z,23.06
2017-02-02T00:33:46.736Z,23.03
2017-02-02T00:34:46.674Z,23.02
2017-02-02T00:35:46.612Z,22.99
2017-02-02T00:36:46.549Z,23.08
2017-02-02T00:37:46.487Z,23.03
2017-02-02T00:38:46.425Z,22.94
2017-02-02T00:39:46.363Z,23.08
2017-02-02T00:40:46.300Z,23.03
2017-02-02T00:41:46.237Z,23
2017-02-02T00:42:46.171Z,23.06
2017-02-02T00:43:46.112Z,23.03
2017-02-02T00:44:46.047Z,23.02
2017-02-02T00:45:45.988Z,23
2017-02-02T00:46:45.925Z,23.03
2017-02-02T00:47:45.860Z,23.02
2017-02-02T00:48:45.829Z,23.03
2017-02-02T00:49:45.737Z,23.06
2017-02-02T00:50:45.696Z,23.03
2017-02-02T00:51:45.609Z,23.06
2017-02-02T00:52:45.548Z,23.06
2017-02-02T00:53:45.484Z,22.96
2017-02-02T00:54:45.420Z,23
2017-02-02T00:55:45.359Z,23.03
2017-02-02T00:56:45.312Z,23.05
2017-02-02T00:57:45.233Z,23.02
2017-02-02T00:58:45.172Z,23.02
2017-02-02T00:59:45.112Z,23
2017-02-02T05:01:01.015Z,22.8
2017-02-02T05:02:05.392Z,22.76
2017-02-02T05:03:00.899Z,22.78
2017-02-02T05:04:00.847Z,22.78
2017-02-02T05:05:00.380Z,22.78
2017-02-02T05:05:59.944Z,22.81
2017-02-02T05:07:00.649Z,22.78
2017-02-02T05:08:00.190Z,22.84
2017-02-02T05:09:00.127Z,22.83
2017-02-02T05:10:00.061Z,22.81
2017-02-02T05:11:00.298Z,22.81
2017-02-02T05:12:00.326Z,22.75
2017-02-02T05:13:00.265Z,22.83
2017-02-02T05:13:59.816Z,22.8
2017-02-02T05:15:00.140Z,22.88
2017-02-02T05:15:59.684Z,22.81
2017-02-02T05:17:00.031Z,22.76
2017-02-02T05:17:59.949Z,22.8
2017-02-02T05:18:59.906Z,22.83
2017-02-02T05:19:59.055Z,22.84
2017-02-02T05:20:59.371Z,22.78
2017-02-02T05:21:59.306Z,22.81
2017-02-02T05:22:59.244Z,22.7
2017-02-02T05:23:59.645Z,22.84
2017-02-02T05:24:59.132Z,22.81
2017-02-02T05:25:59.450Z,22.8
2017-02-02T05:26:58.993Z,22.8
2017-02-02T05:27:59.318Z,22.78
2017-02-02T05:28:59.266Z,22.75
2017-02-02T05:29:59.197Z,22.76
2017-02-02T05:30:59.129Z,22.85
2017-02-02T05:31:58.287Z,22.87
2017-02-02T05:32:58.654Z,22.8
2017-02-02T05:33:58.945Z,22.76
2017-02-02T05:34:58.882Z,22.8
2017-02-02T05:35:58.822Z,22.85
2017-02-02T05:36:59.079Z,22.73
2017-02-02T05:37:58.717Z,22.75
2017-02-02T05:38:58.240Z,22.81
2017-02-02T05:39:58.566Z,22.75
2017-02-02T05:40:58.114Z,22.83
2017-02-02T05:41:58.439Z,22.76
2017-02-02T05:42:58.412Z,22.73
2017-02-02T05:43:57.927Z,22.76
2017-02-02T05:44:58.452Z,22.73
2017-02-02T05:45:58.187Z,22.81
2017-02-02T05:46:57.733Z,22.76
2017-02-02T05:47:58.063Z,22.83
2017-02-02T05:48:57.608Z,22.76
2017-02-02T05:49:57.559Z,22.72
2017-02-02T05:50:57.483Z,22.73
2017-02-02T05:51:57.484Z,22.81
2017-02-02T05:52:57.400Z,22.85
2017-02-02T05:53:57.685Z,22.75
2017-02-02T05:54:57.232Z,22.78
2017-02-02T05:55:57.596Z,22.84
2017-02-02T05:56:57.110Z,22.8
2017-02-02T05:57:57.434Z,22.84
2017-02-02T05:58:56.589Z,22.81
2017-02-02T05:59:57.311Z,22.84
2017-02-02T06:00:56.859Z,22.8
2017-02-02T06:01:57.182Z,22.73
2017-02-02T06:02:56.726Z,22.78
2017-02-02T06:03:57.055Z,22.72
2017-02-02T06:04:56.604Z,22.75
2017-02-02T06:05:56.547Z,22.81
2017-02-02T06:06:56.477Z,22.75
2017-02-02T06:07:56.422Z,22.81
2017-02-02T06:08:56.351Z,22.78
2017-02-02T06:09:56.742Z,22.81
2017-02-02T06:10:56.279Z,22.73
2017-02-02T06:11:56.554Z,22.78
2017-02-02T06:12:56.100Z,22.8
2017-02-02T06:13:56.426Z,22.75
2017-02-02T06:14:55.971Z,22.72
2017-02-02T06:15:56.300Z,22.8
2017-02-02T06:16:55.853Z,22.78
2017-02-02T06:17:56.175Z,22.78
2017-02-02T06:18:55.732Z,22.78
2017-02-02T06:19:56.057Z,22.78
2017-02-02T06:20:55.613Z,22.72
2017-02-02T06:21:55.542Z,22.83
2017-02-02T06:22:55.874Z,22.84
2017-02-02T06:23:55.406Z,22.81
2017-02-02T06:24:56.026Z,22.78
2017-02-02T06:25:55.675Z,22.72
2017-02-02T06:26:55.607Z,22.75
2017-02-02T06:27:55.163Z,22.75
2017-02-02T06:28:55.093Z,22.76
2017-02-02T06:29:55.034Z,22.78
2017-02-02T06:30:55.366Z,22.78
2017-02-02T06:31:55.291Z,22.78
2017-02-02T06:32:54.843Z,22.76
2017-02-02T06:33:54.833Z,22.75
2017-02-02T06:34:55.102Z,22.78
2017-02-02T06:35:54.652Z,22.8
2017-02-02T06:36:54.981Z,22.83
2017-02-02T06:37:54.135Z,22.84
2017-02-02T06:38:54.853Z,22.84
2017-02-02T06:39:54.012Z,22.78
2017-02-02T06:40:54.734Z,22.81
2017-02-02T06:41:54.666Z,22.76
2017-02-02T06:42:54.601Z,22.72
2017-02-02T06:43:54.539Z,22.73
2017-02-02T06:44:54.484Z,22.72
2017-02-02T06:45:54.416Z,22.81
2017-02-02T06:46:54.350Z,22.75
2017-02-02T06:47:54.184Z,22.8
2017-02-02T06:48:54.226Z,22.76
2017-02-02T06:49:53.767Z,22.73
2017-02-02T06:50:54.102Z,22.8
2017-02-02T06:51:54.035Z,22.78
2017-02-02T06:52:53.578Z,22.75
2017-02-02T06:53:53.911Z,22.78
2017-02-02T06:54:53.453Z,22.76
2017-02-02T06:55:53.781Z,22.72
2017-02-02T06:56:53.330Z,22.73
2017-02-02T06:57:53.651Z,22.8
2017-02-02T06:58:53.592Z,22.78
2017-02-02T06:59:53.530Z,22.78
2017-02-02T07:00:52.690Z,22.73
2017-02-02T07:01:53.404Z,22.66
2017-02-02T07:02:53.343Z,22.75
2017-02-02T07:03:53.283Z,22.73
2017-02-02T07:04:53.218Z,22.83
2017-02-02T07:05:53.153Z,22.75
2017-02-02T07:06:52.698Z,22.81
2017-02-02T07:07:52.666Z,22.81
2017-02-02T07:08:52.971Z,22.78
2017-02-02T07:09:52.513Z,22.73
2017-02-02T07:10:52.060Z,22.78
2017-02-02T07:11:52.381Z,22.8
2017-02-02T07:12:52.709Z,22.73
2017-02-02T07:13:52.651Z,22.81
2017-02-02T07:14:52.586Z,22.76
2017-02-02T07:15:52.524Z,22.78
2017-02-02T07:16:52.065Z,22.8
2017-02-02T07:17:52.007Z,22.76
2017-02-02T07:18:51.939Z,22.73
2017-02-02T07:19:51.881Z,22.76
2017-02-02T07:20:52.207Z,22.8
2017-02-02T07:21:51.755Z,22.8
2017-02-02T07:22:51.692Z,22.8
2017-02-02T07:23:52.015Z,22.76
2017-02-02T07:24:52.154Z,22.7
2017-02-02T07:25:51.893Z,22.78
2017-02-02T07:26:51.461Z,22.78
2017-02-02T07:27:51.385Z,22.78
2017-02-02T07:28:50.920Z,22.7
2017-02-02T07:29:51.644Z,22.76
2017-02-02T07:30:51.576Z,22.76
2017-02-02T07:31:51.130Z,22.76
2017-02-02T07:32:51.061Z,22.81
2017-02-02T07:33:51.388Z,22.75
2017-02-02T07:34:51.322Z,22.76
2017-02-02T07:35:51.265Z,22.78
2017-02-02T07:36:50.858Z,22.8
2017-02-02T07:37:50.745Z,22.78
2017-02-02T07:38:51.074Z,22.8
2017-02-02T07:39:50.620Z,22.78
2017-02-02T07:40:50.954Z,22.81
2017-02-02T07:41:50.500Z,22.76
2017-02-02T07:42:50.822Z,22.81
2017-02-02T07:43:50.768Z,22.76
2017-02-02T07:44:50.347Z,22.78
2017-02-02T07:45:50.241Z,22.78
2017-02-02T07:46:50.570Z,22.73
2017-02-02T07:47:50.121Z,22.81
2017-02-02T07:48:50.054Z,22.75
2017-02-02T07:49:49.991Z,22.78
2017-02-02T07:50:49.925Z,22.76
2017-02-02T07:51:50.259Z,22.7
2017-02-02T07:52:49.800Z,22.78
2017-02-02T07:53:50.127Z,22.76
2017-02-02T07:54:50.070Z,22.75
2017-02-02T07:55:49.612Z,22.75
2017-02-02T07:56:49.552Z,22.76
2017-02-02T07:57:49.096Z,22.78
2017-02-02T07:58:49.816Z,22.78
2017-02-02T07:59:49.751Z,22.7
2017-02-02T08:00:49.733Z,22.78
2017-02-02T08:01:49.641Z,22.75
2017-02-02T08:02:49.171Z,22.8
2017-02-02T08:03:49.115Z,22.76
2017-02-02T08:04:49.045Z,22.78
2017-02-02T08:05:49.373Z,22.7
2017-02-02T08:06:48.920Z,22.75
2017-02-02T08:07:49.247Z,22.76
2017-02-02T08:08:48.796Z,22.8
2017-02-02T08:09:48.730Z,22.73
2017-02-02T08:10:49.131Z,22.7
2017-02-02T08:11:48.222Z,22.75
2017-02-02T08:12:48.151Z,22.76
2017-02-02T08:13:48.869Z,22.76
2017-02-02T08:14:48.420Z,22.7
2017-02-02T08:15:48.739Z,22.72
2017-02-02T08:16:48.679Z,22.72
2017-02-02T08:17:48.649Z,22.75
2017-02-02T08:18:48.557Z,22.83
2017-02-02T08:19:48.112Z,22.73
2017-02-02T08:20:48.431Z,22.72
2017-02-02T08:21:47.977Z,22.73
2017-02-02T08:22:48.301Z,22.84
2017-02-02T08:23:48.235Z,22.78
2017-02-02T08:24:48.176Z,22.73
2017-02-02T08:25:48.108Z,22.72
2017-02-02T08:26:48.255Z,22.72
2017-02-02T08:27:47.988Z,22.84
2017-02-02T08:28:47.597Z,22.73
2017-02-02T08:29:47.083Z,22.75
2017-02-02T08:30:47.665Z,22.81
2017-02-02T08:31:47.743Z,22.76
2017-02-02T08:32:47.675Z,22.75
2017-02-02T08:33:46.836Z,22.83
2017-02-02T08:34:47.554Z,22.75
2017-02-02T08:35:47.393Z,22.73
2017-02-02T08:36:47.421Z,22.76
2017-02-02T08:37:47.353Z,22.78
2017-02-02T08:38:47.321Z,22.73
2017-02-02T08:39:47.234Z,22.75
2017-02-02T08:40:46.773Z,22.8
2017-02-02T08:41:47.108Z,22.81
2017-02-02T08:42:46.467Z,22.78
2017-02-02T08:43:47.037Z,22.76
2017-02-02T08:44:46.917Z,22.76
2017-02-02T08:45:46.072Z,22.72
2017-02-02T08:46:46.013Z,22.76
2017-02-02T08:47:46.729Z,22.73
2017-02-02T08:48:45.898Z,22.8
2017-02-02T08:49:46.617Z,22.73
2017-02-02T08:50:46.433Z,22.75
2017-02-02T08:51:46.475Z,22.84
2017-02-02T08:52:46.030Z,22.75
2017-02-02T08:53:46.353Z,22.78
2017-02-02T08:54:46.286Z,22.78
2017-02-02T08:55:46.236Z,22.73
2017-02-02T08:56:45.771Z,22.84
2017-02-02T08:57:45.708Z,22.72
2017-02-02T08:58:45.646Z,22.76
2017-02-02T08:59:45.191Z,22.83
2017-02-02T09:00:45.907Z,22.84
2017-02-02T09:01:45.844Z,22.8
2017-02-02T09:02:45.395Z,22.91
2017-02-02T09:03:45.717Z,22.94
2017-02-02T09:04:45.273Z,22.91
2017-02-02T09:05:45.205Z,22.91
2017-02-02T09:06:45.146Z,22.94
2017-02-02T09:07:45.079Z,22.91
2017-02-02T09:08:45.408Z,23
2017-02-02T09:09:44.569Z,22.94
2017-02-02T09:10:44.890Z,22.98
2017-02-02T09:11:45.213Z,23
2017-02-02T09:12:44.807Z,23.03
2017-02-02T09:13:45.089Z,23.02
2017-02-02T09:14:44.645Z,23.03
2017-02-02T09:15:44.970Z,23.05
2017-02-02T09:16:44.929Z,23.1
2017-02-02T09:17:44.446Z,23.08
2017-02-02T09:18:44.383Z,23.09
2017-02-02T09:19:44.324Z,23.1
2017-02-02T09:20:44.648Z,23.13
2017-02-02T09:21:44.192Z,23.1
2017-02-02T09:22:44.130Z,23.15
2017-02-02T09:23:44.120Z,23.2
2017-02-02T09:24:44.216Z,23.21
2017-02-02T09:25:44.292Z,23.2
2017-02-02T09:26:44.282Z,23.18
2017-02-02T09:27:44.208Z,23.28
2017-02-02T09:28:44.144Z,23.25
2017-02-02T09:29:43.694Z,23.23
2017-02-02T09:30:44.183Z,23.24
2017-02-02T09:31:43.968Z,23.23
2017-02-02T09:32:43.938Z,23.27
2017-02-02T09:33:43.055Z,23.27
2017-02-02T09:34:43.383Z,23.25
2017-02-02T09:35:44.264Z,23.27
2017-02-02T09:36:43.642Z,23.32
2017-02-02T09:37:43.215Z,23.34
2017-02-02T09:38:43.140Z,23.36
2017-02-02T09:39:43.460Z,23.34
2017-02-02T09:40:43.318Z,23.37
2017-02-02T09:41:43.556Z,23.41
2017-02-02T09:42:43.274Z,23.41
2017-02-02T09:43:43.209Z,23.46
2017-02-02T09:44:42.366Z,23.44
2017-02-02T09:45:43.235Z,23.5
2017-02-02T09:46:43.025Z,23.47
2017-02-02T09:47:42.956Z,23.61
2017-02-02T09:48:42.511Z,23.55
2017-02-02T09:49:42.836Z,23.56
2017-02-02T09:50:43.018Z,23.47
2017-02-02T09:51:42.320Z,23.58
2017-02-02T09:52:42.255Z,23.54
2017-02-02T09:53:42.584Z,23.56
2017-02-02T09:54:42.521Z,23.5
2017-02-02T09:55:42.462Z,23.56
2017-02-02T09:56:42.397Z,23.55
2017-02-02T09:57:41.944Z,23.55
2017-02-02T09:58:41.492Z,23.59
2017-02-02T09:59:41.818Z,23.68
2017-02-02T10:00:41.372Z,23.63
2017-02-02T10:01:42.082Z,23.65
2017-02-02T10:02:50.839Z,23.69
2017-02-02T10:03:41.968Z,23.74
2017-02-02T10:04:41.506Z,23.74
2017-02-02T10:05:56.583Z,23.78
2017-02-02T10:06:41.776Z,23.76
2017-02-02T10:07:41.382Z,23.74
2017-02-02T10:08:41.260Z,23.76
2017-02-02T10:09:41.211Z,23.77
2017-02-02T10:10:41.153Z,23.74
2017-02-02T10:11:41.076Z,23.78
2017-02-02T10:12:41.007Z,23.77
2017-02-02T10:13:40.950Z,23.83
2017-02-02T10:14:41.283Z,23.8
2017-02-02T10:15:40.827Z,23.83
2017-02-02T10:16:41.162Z,23.81
2017-02-02T10:17:41.089Z,23.78
2017-02-02T10:18:41.050Z,23.8
2017-02-02T10:19:40.986Z,23.86
2017-02-02T10:20:40.910Z,23.83
2017-02-02T10:21:40.906Z,23.83
2017-02-02T10:22:40.846Z,23.86
2017-02-02T10:23:40.715Z,23.84
2017-02-02T10:24:40.270Z,23.87
2017-02-02T10:25:40.458Z,23.92
2017-02-02T10:26:40.151Z,23.81
2017-02-02T10:27:40.079Z,23.88
2017-02-02T10:28:40.013Z,23.96
2017-02-02T10:29:40.348Z,23.88
2017-02-02T10:30:40.234Z,23.91
2017-02-02T10:31:40.223Z,23.96
2017-02-02T10:32:40.222Z,23.66
2017-02-02T10:33:39.719Z,23.46
2017-02-02T10:34:39.654Z,23.15
2017-02-02T10:35:39.838Z,23.12
2017-02-02T10:36:39.910Z,23.03
2017-02-02T10:37:39.851Z,22.85
2017-02-02T10:38:39.406Z,22.72
2017-02-02T10:39:39.339Z,22.65
2017-02-02T10:40:39.664Z,22.6
2017-02-02T10:41:39.609Z,22.45
2017-02-02T10:42:39.551Z,22.23
2017-02-02T10:43:39.088Z,22.39
2017-02-02T10:44:39.410Z,22.43
2017-02-02T10:45:39.208Z,22.43
2017-02-02T10:46:38.510Z,22.6
2017-02-02T10:47:39.229Z,22.59
2017-02-02T10:48:39.029Z,22.51
2017-02-02T10:49:39.165Z,22.63
2017-02-02T10:50:39.045Z,22.75
2017-02-02T10:51:38.994Z,22.7
2017-02-02T10:52:38.914Z,22.7
2017-02-02T10:53:38.613Z,22.72
2017-02-02T10:54:38.785Z,22.73
2017-02-02T10:55:38.721Z,22.76
2017-02-02T10:56:38.658Z,22.83
2017-02-02T10:57:38.415Z,22.7
2017-02-02T10:58:38.543Z,22.75
2017-02-02T10:59:38.090Z,22.62
2017-02-02T11:00:38.601Z,22.55
2017-02-02T11:01:38.344Z,22.65
2017-02-02T11:02:37.888Z,22.59
2017-02-02T11:03:38.225Z,22.65
2017-02-02T11:04:38.154Z,22.62
2017-02-02T11:05:38.092Z,22.73
2017-02-02T11:06:37.698Z,22.75
2017-02-02T11:07:37.592Z,22.83
2017-02-02T11:08:37.125Z,22.81
2017-02-02T11:09:37.834Z,22.96
2017-02-02T11:10:37.402Z,22.88
2017-02-02T11:11:36.931Z,22.93
2017-02-02T11:12:37.649Z,22.98
2017-02-02T11:13:37.585Z,22.96
2017-02-02T11:14:37.518Z,23.06
2017-02-02T11:15:37.078Z,23.08
2017-02-02T11:16:37.396Z,23.17
2017-02-02T11:17:37.329Z,23.08
2017-02-02T11:18:36.898Z,23.1
2017-02-02T11:19:36.816Z,23.13
2017-02-02T11:20:37.147Z,23.18
2017-02-02T11:21:37.096Z,23.24
2017-02-02T11:22:36.642Z,23.18
2017-02-02T11:23:36.201Z,23.23
2017-02-02T11:24:36.903Z,23.24
2017-02-02T11:25:37.129Z,23.24
2017-02-02T11:26:36.386Z,23.27
2017-02-02T11:27:36.705Z,23.27
2017-02-02T11:28:36.648Z,23.31
2017-02-02T11:29:36.581Z,23.39
2017-02-02T11:30:35.738Z,23.32
2017-02-02T11:31:36.076Z,23.27
2017-02-02T11:32:36.392Z,23.4
2017-02-02T11:33:36.338Z,23.4
2017-02-02T11:34:35.877Z,23.43
2017-02-02T11:35:35.816Z,23.46
2017-02-02T11:36:36.455Z,23.46
2017-02-02T11:37:36.091Z,23.46
2017-02-02T11:38:36.018Z,23.41
2017-02-02T11:39:35.957Z,23.51
2017-02-02T11:40:35.114Z,23.5
2017-02-02T11:41:35.710Z,23.46
2017-02-02T11:42:35.372Z,23.44
2017-02-02T11:43:35.718Z,23.44
2017-02-02T11:44:35.645Z,23.41
2017-02-02T11:45:35.608Z,23.54
2017-02-02T11:46:35.144Z,23.54
2017-02-02T11:47:35.073Z,23.51
2017-02-02T11:48:35.005Z,23.54
2017-02-02T11:49:34.942Z,23.56
2017-02-02T11:50:35.268Z,23.63
2017-02-02T11:51:35.205Z,23.59
2017-02-02T11:52:34.753Z,23.62
2017-02-02T11:53:35.079Z,23.62
2017-02-02T11:54:34.241Z,23.61
2017-02-02T11:55:34.181Z,23.59
2017-02-02T11:56:34.508Z,23.58
2017-02-02T11:57:34.054Z,23.65
2017-02-02T11:58:34.774Z,23.62
2017-02-02T11:59:34.326Z,23.66
2017-02-02T12:00:34.257Z,23.66
2017-02-02T12:01:34.475Z,23.71
2017-02-02T12:02:34.132Z,23.71
2017-02-02T12:03:34.068Z,23.73
2017-02-02T12:04:34.404Z,23.78
2017-02-02T12:05:34.340Z,23.74
2017-02-02T12:06:33.896Z,23.78
2017-02-02T12:07:34.101Z,23.8
2017-02-02T12:08:33.763Z,23.8
2017-02-02T12:09:34.097Z,23.78
2017-02-02T12:10:33.934Z,23.81
2017-02-02T12:11:33.575Z,23.83
2017-02-02T12:12:33.541Z,23.78
2017-02-02T12:13:33.466Z,23.78
2017-02-02T12:14:33.776Z,23.88
2017-02-02T12:15:33.721Z,23.83
2017-02-02T12:16:32.871Z,23.78
2017-02-02T12:17:33.212Z,23.77
2017-02-02T12:18:33.140Z,23.41
2017-02-02T12:19:33.749Z,23.21
2017-02-02T12:20:33.013Z,23.08
2017-02-02T12:21:32.954Z,22.9
2017-02-02T12:22:33.282Z,22.93
2017-02-02T12:23:32.842Z,22.93
2017-02-02T12:24:32.952Z,23.06
2017-02-02T12:25:33.413Z,23.25
2017-02-02T12:26:33.043Z,23.32
2017-02-02T12:27:32.583Z,23.4
2017-02-02T12:28:32.914Z,23.54
2017-02-02T12:29:32.064Z,23.5
2017-02-02T12:30:33.043Z,23.51
2017-02-02T12:31:31.944Z,23.59
2017-02-02T12:32:32.654Z,23.62
2017-02-02T12:33:32.251Z,23.61
2017-02-02T12:34:32.142Z,23.62
2017-02-02T12:35:33.133Z,23.71
2017-02-02T12:36:32.405Z,23.65
2017-02-02T12:37:31.562Z,23.68
2017-02-02T12:38:32.312Z,23.76
2017-02-02T12:39:32.032Z,23.71
2017-02-02T12:40:32.175Z,23.76
2017-02-02T12:41:31.318Z,23.8
2017-02-02T12:42:31.647Z,23.77
2017-02-02T12:43:31.971Z,23.83
2017-02-02T12:44:31.912Z,23.78
2017-02-02T12:45:32.147Z,23.78
2017-02-02T12:46:31.789Z,23.86
2017-02-02T12:47:30.949Z,23.83
2017-02-02T12:48:31.678Z,23.84
2017-02-02T12:49:31.602Z,23.84
2017-02-02T12:50:31.012Z,23.84
2017-02-02T12:51:30.694Z,23.87
2017-02-02T12:52:31.035Z,23.84
2017-02-02T12:53:30.977Z,23.88
2017-02-02T12:54:31.304Z,23.86
2017-02-02T12:55:30.842Z,23.91
2017-02-02T12:56:30.387Z,23.58
2017-02-02T12:57:30.330Z,23.37
2017-02-02T12:58:31.052Z,23.27
2017-02-02T12:59:30.594Z,23.32
2017-02-02T13:00:30.923Z,23.44
2017-02-02T13:01:30.526Z,23.5
2017-02-02T13:02:30.816Z,23.62
2017-02-02T13:03:30.345Z,23.69
2017-02-02T13:04:30.286Z,23.76
2017-02-02T13:05:30.613Z,23.78
2017-02-02T13:06:30.794Z,23.81
2017-02-02T13:07:30.490Z,23.8
2017-02-02T13:08:30.427Z,23.84
2017-02-02T13:09:30.356Z,23.84
2017-02-02T13:10:29.981Z,23.87
2017-02-02T13:11:30.050Z,23.88
2017-02-02T13:12:29.784Z,23.93
2017-02-02T13:13:30.120Z,23.81
2017-02-02T13:14:29.657Z,23.96
2017-02-02T13:15:29.609Z,23.95
2017-02-02T13:16:29.927Z,23.95
2017-02-02T13:17:29.471Z,23.92
2017-02-02T13:18:29.810Z,23.99
2017-02-02T13:19:29.740Z,23.76
2017-02-02T13:20:29.288Z,23.65
2017-02-02T13:21:28.835Z,23.59
2017-02-02T13:22:29.563Z,23.74
2017-02-02T13:23:29.491Z,23.76
2017-02-02T13:24:29.047Z,23.81
2017-02-02T13:25:29.386Z,23.88
2017-02-02T13:26:28.919Z,23.91
2017-02-02T13:27:28.851Z,23.95
2017-02-02T13:28:29.183Z,23.88
2017-02-02T13:29:29.126Z,23.95
2017-02-02T13:30:29.063Z,23.95
2017-02-02T13:31:28.611Z,23.87
2017-02-02T13:32:28.941Z,23.86
2017-02-02T13:33:28.877Z,23.95
2017-02-02T13:34:28.428Z,23.96
2017-02-02T13:35:28.998Z,24.02
2017-02-02T13:36:28.723Z,23.99
2017-02-02T13:37:28.630Z,24.06
2017-02-02T13:38:28.177Z,24.02
2017-02-02T13:39:28.107Z,24.06
2017-02-02T13:40:28.521Z,24.11
2017-02-02T13:41:27.987Z,24.08
2017-02-02T13:42:28.317Z,24.06
2017-02-02T13:43:27.933Z,24.11
2017-02-02T13:44:27.803Z,24.05
2017-02-02T13:45:27.376Z,24.11
2017-02-02T13:46:28.070Z,24.16
2017-02-02T13:47:27.225Z,24.1
2017-02-02T13:48:27.943Z,24.1
2017-02-02T13:49:27.887Z,24.1
2017-02-02T13:50:28.077Z,24.14
